createdAt,value
2019-05-11T00:00:02.543Z,0.90
2019-05-11T00:02:29.718Z,0.90
2019-05-11T00:04:56.871Z,0.90
2019-05-11T00:07:24.058Z,1.00
2019-05-11T00:09:58.267Z,0.90
2019-05-11T00:12:18.318Z,1.10
2019-05-11T00:14:45.456Z,0.93
2019-05-11T00:17:12.564Z,0.90
2019-05-11T00:19:39.721Z,1.00
2019-05-11T00:22:06.809Z,1.20
2019-05-11T00:24:34.370Z,1.10
2019-05-11T00:27:01.460Z,1.10
2019-05-11T00:29:28.582Z,0.80
2019-05-11T00:31:55.817Z,0.80
2019-05-11T00:34:22.931Z,0.80
2019-05-11T00:36:50.081Z,0.90
2019-05-11T00:39:17.205Z,1.03
2019-05-11T00:41:44.368Z,1.00
2019-05-11T00:44:11.879Z,1.03
2019-05-11T00:46:38.980Z,0.90
2019-05-11T00:49:06.095Z,1.00
2019-05-11T00:51:33.164Z,1.10
2019-05-11T00:54:00.251Z,1.00
2019-05-11T00:56:27.364Z,1.03
2019-05-11T00:58:54.474Z,1.10
2019-05-11T01:01:22.593Z,1.10
2019-05-11T01:03:49.716Z,1.10
2019-05-11T01:06:16.912Z,1.07
2019-05-11T01:08:44.310Z,1.13
2019-05-11T01:11:11.428Z,1.10
2019-05-11T01:13:38.595Z,0.80
2019-05-11T01:16:05.795Z,1.10
2019-05-11T01:18:32.871Z,1.17
2019-05-11T01:21:00.129Z,1.30
2019-05-11T01:23:27.258Z,1.10
2019-05-11T01:25:54.316Z,1.27
2019-05-11T01:28:21.406Z,1.23
2019-05-11T01:30:48.540Z,1.23
2019-05-11T01:33:15.684Z,1.27
2019-05-11T01:35:42.846Z,1.13
2019-05-11T01:38:09.936Z,1.40
2019-05-11T01:40:36.997Z,1.23
2019-05-11T01:43:04.085Z,1.20
2019-05-11T01:45:31.197Z,1.40
2019-05-11T01:47:58.376Z,0.90
2019-05-11T01:50:25.485Z,1.10
2019-05-11T01:52:52.608Z,1.20
2019-05-11T01:55:19.712Z,1.20
2019-05-11T01:57:46.803Z,1.20
2019-05-11T02:00:13.852Z,1.03
2019-05-11T02:02:41.067Z,1.47
2019-05-11T02:05:13.951Z,1.30
2019-05-11T02:07:41.086Z,0.90
2019-05-11T02:10:08.181Z,1.20
2019-05-11T02:12:35.293Z,1.40
2019-05-11T02:15:02.449Z,1.20
2019-05-11T02:17:29.662Z,1.27
2019-05-11T02:19:56.763Z,1.10
2019-05-11T02:22:23.953Z,1.70
2019-05-11T02:24:51.078Z,1.30
2019-05-11T02:27:18.171Z,1.40
2019-05-11T02:29:45.228Z,1.27
2019-05-11T02:32:12.305Z,1.30
2019-05-11T02:34:39.449Z,1.20
2019-05-11T02:37:06.649Z,1.20
2019-05-11T02:39:33.757Z,0.90
2019-05-11T02:42:00.891Z,1.30
2019-05-11T02:44:27.960Z,1.20
2019-05-11T02:46:55.065Z,1.30
2019-05-11T02:49:22.224Z,1.00
2019-05-11T02:51:49.294Z,1.17
2019-05-11T02:54:16.375Z,1.30
2019-05-11T02:56:43.420Z,0.93
2019-05-11T02:59:10.547Z,1.03
2019-05-11T03:01:37.699Z,1.10
2019-05-11T03:04:04.817Z,1.10
2019-05-11T03:06:31.929Z,1.20
2019-05-11T03:08:59.137Z,1.10
2019-05-11T03:11:26.305Z,1.20
2019-05-11T03:13:53.454Z,1.20
2019-05-11T03:16:20.521Z,1.27
2019-05-11T03:18:47.610Z,1.47
2019-05-11T03:21:14.762Z,1.40
2019-05-11T03:23:41.930Z,1.33
2019-05-11T03:26:09.073Z,1.30
2019-05-11T03:28:36.199Z,1.17
2019-05-11T03:31:03.249Z,1.27
2019-05-11T03:33:30.323Z,1.50
2019-05-11T03:35:57.508Z,1.63
2019-05-11T03:38:24.634Z,1.33
2019-05-11T03:40:51.805Z,1.27
2019-05-11T03:43:18.947Z,1.23
2019-05-11T03:45:46.036Z,1.37
2019-05-11T03:48:13.197Z,1.53
2019-05-11T03:50:40.378Z,1.50
2019-05-11T03:53:07.497Z,1.60
2019-05-11T03:55:34.599Z,1.50
2019-05-11T03:58:01.685Z,1.60
2019-05-11T04:00:28.810Z,1.10
2019-05-11T04:02:55.977Z,1.30
2019-05-11T04:05:23.097Z,1.20
2019-05-11T04:07:50.321Z,1.07
2019-05-11T04:10:17.436Z,1.37
2019-05-11T04:12:44.482Z,1.23
2019-05-11T04:15:11.549Z,1.30
2019-05-11T04:17:38.761Z,1.70
2019-05-11T04:20:05.893Z,1.23
2019-05-11T04:22:32.996Z,1.20
2019-05-11T04:25:00.111Z,1.30
2019-05-11T04:27:27.268Z,1.53
2019-05-11T04:29:54.379Z,1.23
2019-05-11T04:32:21.477Z,0.97
2019-05-11T04:34:48.653Z,1.77
2019-05-11T04:37:15.727Z,1.50
2019-05-11T04:39:42.822Z,0.97
2019-05-11T04:42:10.017Z,1.10
2019-05-11T04:44:37.168Z,1.30
2019-05-11T04:47:04.612Z,1.23
2019-05-11T04:49:31.756Z,1.40
2019-05-11T04:51:58.817Z,1.33
2019-05-11T04:54:25.946Z,1.20
2019-05-11T04:56:53.120Z,0.90
2019-05-11T04:59:20.223Z,1.50
2019-05-11T05:01:47.376Z,1.13
2019-05-11T05:04:14.679Z,1.20
2019-05-11T05:06:41.553Z,1.10
2019-05-11T05:09:08.758Z,1.20
2019-05-11T05:11:36.795Z,1.20
2019-05-11T05:14:08.161Z,1.20
2019-05-11T05:16:31.425Z,1.10
2019-05-11T05:18:57.195Z,1.00
2019-05-11T05:21:24.343Z,1.40
2019-05-11T05:23:51.505Z,1.10
2019-05-11T05:26:18.588Z,1.20
2019-05-11T05:28:46.021Z,1.20
2019-05-11T05:31:12.835Z,0.90
2019-05-11T05:33:39.899Z,0.90
2019-05-11T05:36:07.060Z,1.17
2019-05-11T05:38:34.256Z,1.00
2019-05-11T05:41:01.354Z,1.03
2019-05-11T05:43:28.722Z,1.13
2019-05-11T05:45:55.628Z,1.10
2019-05-11T05:48:22.719Z,1.00
2019-05-11T05:50:49.872Z,1.00
2019-05-11T05:53:17.052Z,0.97
2019-05-11T05:55:44.318Z,1.17
2019-05-11T05:58:11.495Z,0.90
2019-05-11T06:00:38.580Z,0.80
2019-05-11T06:03:05.673Z,1.00
2019-05-11T06:05:32.917Z,0.90
2019-05-11T06:08:00.108Z,0.80
2019-05-11T06:10:27.225Z,0.90
2019-05-11T06:12:54.304Z,0.90
2019-05-11T06:15:21.398Z,1.10
2019-05-11T06:17:48.529Z,1.03
2019-05-11T06:20:15.637Z,1.10
2019-05-11T06:22:42.797Z,0.73
2019-05-11T06:25:09.908Z,1.00
2019-05-11T06:27:37.069Z,0.80
2019-05-11T06:30:04.342Z,1.23
2019-05-11T06:32:31.491Z,0.90
2019-05-11T06:34:58.590Z,1.13
2019-05-11T06:37:25.716Z,1.03
2019-05-11T06:39:52.814Z,1.00
2019-05-11T06:42:19.921Z,0.87
2019-05-11T06:44:47.039Z,1.13
2019-05-11T06:47:14.255Z,0.90
2019-05-11T06:49:41.343Z,0.80
2019-05-11T06:52:08.465Z,0.77
2019-05-11T06:54:35.563Z,1.10
2019-05-11T06:57:02.660Z,1.00
2019-05-11T06:59:29.793Z,0.90
2019-05-11T07:01:56.877Z,0.83
2019-05-11T07:04:24.000Z,0.90
2019-05-11T07:06:51.214Z,0.67
2019-05-11T07:09:18.512Z,0.90
2019-05-11T07:11:45.669Z,0.90
2019-05-11T07:14:20.526Z,0.90
2019-05-11T07:16:40.002Z,0.70
2019-05-11T07:19:07.100Z,0.53
2019-05-11T07:21:34.236Z,0.70
2019-05-11T07:24:01.414Z,0.80
2019-05-11T07:26:28.527Z,0.90
2019-05-11T07:28:55.678Z,0.70
2019-05-11T07:31:22.824Z,0.70
2019-05-11T07:33:49.928Z,1.00
2019-05-11T07:36:17.730Z,0.90
2019-05-11T07:38:44.376Z,1.00
2019-05-11T07:41:11.480Z,0.97
2019-05-11T07:43:38.554Z,0.80
2019-05-11T07:46:07.741Z,0.70
2019-05-11T07:48:32.892Z,0.90
2019-05-11T07:51:00.128Z,0.70
2019-05-11T07:53:27.990Z,1.03
2019-05-11T07:55:54.412Z,0.83
2019-05-11T07:58:21.513Z,0.70
2019-05-11T08:00:48.934Z,0.60
2019-05-11T08:03:18.074Z,0.63
2019-05-11T08:05:43.463Z,0.73
2019-05-11T08:08:10.589Z,0.63
2019-05-11T08:10:39.065Z,0.63
2019-05-11T08:13:04.758Z,0.70
2019-05-11T08:15:31.949Z,0.60
2019-05-11T08:17:59.111Z,0.70
2019-05-11T08:20:28.105Z,0.63
2019-05-11T08:22:53.511Z,0.60
2019-05-11T08:25:20.552Z,0.70
2019-05-11T08:27:48.476Z,0.70
2019-05-11T08:30:14.789Z,0.50
2019-05-11T08:32:41.878Z,0.70
2019-05-11T08:35:08.963Z,0.70
2019-05-11T08:37:36.104Z,0.90
2019-05-11T08:40:03.228Z,0.87
2019-05-11T08:42:30.311Z,0.83
2019-05-11T08:45:14.621Z,0.60
2019-05-11T08:47:24.523Z,0.77
2019-05-11T08:49:51.848Z,0.60
2019-05-11T08:52:18.956Z,0.60
2019-05-11T08:54:46.055Z,0.73
2019-05-11T08:57:13.108Z,0.73
2019-05-11T08:59:40.254Z,0.60
2019-05-11T09:02:08.168Z,0.43
2019-05-11T09:04:38.341Z,0.60
2019-05-11T09:07:01.664Z,0.70
2019-05-11T09:09:28.921Z,0.60
2019-05-11T09:11:55.980Z,0.60
2019-05-11T09:14:23.153Z,0.50
2019-05-11T09:16:50.225Z,0.60
2019-05-11T09:19:17.884Z,0.40
2019-05-11T09:21:44.552Z,0.60
2019-05-11T09:24:11.652Z,0.40
2019-05-11T09:26:39.052Z,0.60
2019-05-11T09:29:05.776Z,0.50
2019-05-11T09:31:33.114Z,0.50
2019-05-11T09:34:00.275Z,0.40
2019-05-11T09:36:28.501Z,0.67
2019-05-11T09:38:54.561Z,0.50
2019-05-11T09:41:21.668Z,0.60
2019-05-11T09:43:48.821Z,0.70
2019-05-11T09:46:15.890Z,0.40
2019-05-11T09:48:42.956Z,0.50
2019-05-11T09:51:10.059Z,0.40
2019-05-11T09:53:38.850Z,0.40
2019-05-11T09:56:04.425Z,0.60
2019-05-11T09:58:31.570Z,0.83
2019-05-11T10:00:58.753Z,0.80
2019-05-11T10:03:27.993Z,0.63
2019-05-11T10:05:52.886Z,0.50
2019-05-11T10:08:19.954Z,0.70
2019-05-11T10:10:48.790Z,0.40
2019-05-11T10:13:14.260Z,0.50
2019-05-11T10:15:41.311Z,0.43
2019-05-11T10:18:08.425Z,0.57
2019-05-11T10:20:35.517Z,0.60
2019-05-11T10:23:02.599Z,0.50
2019-05-11T10:25:29.750Z,0.80
2019-05-11T10:27:58.015Z,0.40
2019-05-11T10:30:23.871Z,0.50
2019-05-11T10:32:51.044Z,0.50
2019-05-11T10:35:18.481Z,0.60
2019-05-11T10:37:47.651Z,0.60
2019-05-11T10:40:12.417Z,0.60
2019-05-11T10:42:39.538Z,0.53
2019-05-11T10:45:08.893Z,0.47
2019-05-11T10:47:33.806Z,0.67
2019-05-11T10:50:01.036Z,0.47
2019-05-11T10:52:28.689Z,0.60
2019-05-11T10:54:55.350Z,0.60
2019-05-11T10:57:22.425Z,0.50
2019-05-11T10:59:49.472Z,0.60
2019-05-11T11:02:18.518Z,0.47
2019-05-11T11:04:43.703Z,0.80
2019-05-11T11:07:10.754Z,0.50
2019-05-11T11:09:38.571Z,0.57
2019-05-11T11:12:05.144Z,0.50
2019-05-11T11:14:32.259Z,0.70
2019-05-11T11:16:59.335Z,0.60
2019-05-11T11:19:28.736Z,0.60
2019-05-11T11:21:53.540Z,0.63
2019-05-11T11:24:20.665Z,0.40
2019-05-11T11:26:48.602Z,0.50
2019-05-11T11:29:14.844Z,0.43
2019-05-11T11:31:42.000Z,0.50
2019-05-11T11:34:09.115Z,0.53
2019-05-11T11:36:37.620Z,0.60
2019-05-11T11:39:05.023Z,0.67
2019-05-11T11:41:32.926Z,0.60
2019-05-11T11:43:59.975Z,0.57
2019-05-11T11:46:27.805Z,0.40
2019-05-11T11:48:54.423Z,0.60
2019-05-11T11:51:21.615Z,0.50
2019-05-11T11:53:48.768Z,0.80
2019-05-11T11:56:15.912Z,0.40
2019-05-11T11:58:43.033Z,0.70
2019-05-11T12:01:10.152Z,0.60
2019-05-11T12:03:37.971Z,0.50
2019-05-11T12:06:04.501Z,0.53
2019-05-11T12:08:31.589Z,0.60
2019-05-11T12:10:59.163Z,0.80
2019-05-11T12:13:27.449Z,0.57
2019-05-11T12:15:53.371Z,0.70
2019-05-11T12:18:20.420Z,0.53
2019-05-11T12:20:48.051Z,0.70
2019-05-11T12:23:14.560Z,0.60
2019-05-11T12:25:41.938Z,0.60
2019-05-11T12:28:09.025Z,0.60
2019-05-11T12:30:37.654Z,0.80
2019-05-11T12:33:03.218Z,0.60
2019-05-11T12:35:30.358Z,0.80
2019-05-11T12:37:58.728Z,0.77
2019-05-11T12:40:24.529Z,0.60
2019-05-11T12:42:51.640Z,0.67
2019-05-11T12:45:18.713Z,0.63
2019-05-11T12:47:47.901Z,0.80
2019-05-11T12:50:13.003Z,0.67
2019-05-11T12:52:40.081Z,0.60
2019-05-11T12:55:08.718Z,0.60
2019-05-11T12:57:34.266Z,0.83
2019-05-11T13:00:01.338Z,0.70
2019-05-11T13:02:28.461Z,0.63
2019-05-11T13:04:55.540Z,0.80
2019-05-11T13:07:22.719Z,0.80
2019-05-11T13:09:49.860Z,0.67
2019-05-11T13:12:18.639Z,0.63
2019-05-11T13:14:44.119Z,0.60
2019-05-11T13:17:11.215Z,0.60
2019-05-11T13:19:38.693Z,0.67
2019-05-11T13:22:07.754Z,0.80
2019-05-11T13:24:32.624Z,0.80
2019-05-11T13:26:59.874Z,0.80
2019-05-11T13:29:28.664Z,0.80
2019-05-11T13:31:54.004Z,0.80
2019-05-11T13:34:21.154Z,0.83
2019-05-11T13:36:48.901Z,0.83
2019-05-11T13:39:15.356Z,0.80
2019-05-11T13:41:42.520Z,1.00
2019-05-11T13:44:09.632Z,1.00
2019-05-11T13:46:38.696Z,0.73
2019-05-11T13:49:03.971Z,0.93
2019-05-11T13:51:31.081Z,1.10
2019-05-11T13:53:58.572Z,1.10
2019-05-11T13:56:25.464Z,0.97
2019-05-11T13:58:52.651Z,0.80
2019-05-11T14:01:19.695Z,1.00
2019-05-11T14:03:48.378Z,0.80
2019-05-11T14:06:13.932Z,0.87
2019-05-11T14:08:41.046Z,1.03
2019-05-11T14:11:08.576Z,0.87
2019-05-11T14:13:35.240Z,0.90
2019-05-11T14:16:02.325Z,0.97
2019-05-11T14:18:29.416Z,0.80
2019-05-11T14:20:58.555Z,1.37
2019-05-11T14:23:23.712Z,0.90
2019-05-11T14:25:50.775Z,1.00
2019-05-11T14:28:18.142Z,0.97
2019-05-11T14:30:45.161Z,1.10
2019-05-11T14:33:12.337Z,1.00
2019-05-11T14:35:39.427Z,1.00
2019-05-11T14:38:08.027Z,1.20
2019-05-11T14:40:33.757Z,1.17
2019-05-11T14:43:00.884Z,1.00
2019-05-11T14:45:28.895Z,0.93
2019-05-11T14:47:55.424Z,1.00
2019-05-11T14:50:22.503Z,1.07
2019-05-11T14:52:49.600Z,1.03
2019-05-11T14:55:18.359Z,1.47
2019-05-11T14:57:43.868Z,1.03
2019-05-11T15:00:11.032Z,1.30
2019-05-11T15:02:43.960Z,1.43
2019-05-11T15:05:11.019Z,1.20
2019-05-11T15:07:38.588Z,1.40
2019-05-11T15:10:05.320Z,1.10
2019-05-11T15:12:32.467Z,1.27
2019-05-11T15:14:59.561Z,1.10
2019-05-11T15:17:28.175Z,1.43
2019-05-11T15:19:53.880Z,1.30
2019-05-11T15:22:20.935Z,1.30
2019-05-11T15:24:48.468Z,1.30
2019-05-11T15:27:15.132Z,1.10
2019-05-11T15:29:42.280Z,1.20
2019-05-11T15:32:09.332Z,1.20
2019-05-11T15:34:37.912Z,1.17
2019-05-11T15:37:03.484Z,1.10
2019-05-11T15:39:30.609Z,1.20
2019-05-11T15:42:09.270Z,1.03
2019-05-11T15:44:24.791Z,1.30
2019-05-11T15:46:51.908Z,1.30
2019-05-11T15:49:19.092Z,1.47
2019-05-11T15:51:48.353Z,1.10
2019-05-11T15:54:13.391Z,1.07
2019-05-11T15:56:40.544Z,1.37
2019-05-11T15:59:08.740Z,1.67
2019-05-11T16:01:35.035Z,1.20
2019-05-11T16:04:02.330Z,1.40
2019-05-11T16:06:29.436Z,1.33
2019-05-11T16:08:58.553Z,1.13
2019-05-11T16:11:23.768Z,1.50
2019-05-11T16:13:50.848Z,1.20
2019-05-11T16:16:17.883Z,1.20
2019-05-11T16:18:45.067Z,1.43
2019-05-11T16:21:12.159Z,1.50
2019-05-11T16:23:39.262Z,1.30
2019-05-11T16:26:08.408Z,1.60
2019-05-11T16:28:33.442Z,1.33
2019-05-11T16:31:00.544Z,1.30
2019-05-11T16:33:27.644Z,1.00
2019-05-11T16:35:54.751Z,1.30
2019-05-11T16:38:21.809Z,1.27
2019-05-11T16:40:48.873Z,1.37
2019-05-11T16:43:16.051Z,1.20
2019-05-11T16:45:43.365Z,1.80
2019-05-11T16:48:10.539Z,1.40
2019-05-11T16:50:38.368Z,1.10
2019-05-11T16:53:04.767Z,1.20
2019-05-11T16:55:31.868Z,1.20
2019-05-11T16:57:58.944Z,1.13
2019-05-11T17:00:26.051Z,1.13
2019-05-11T17:02:53.162Z,1.03
2019-05-11T17:05:26.617Z,1.27
2019-05-11T17:07:48.301Z,1.20
2019-05-11T17:10:14.623Z,1.33
2019-05-11T17:12:41.763Z,1.23
2019-05-11T17:15:08.967Z,1.20
2019-05-11T17:17:35.934Z,1.67
2019-05-11T17:20:03.027Z,1.60
2019-05-11T17:22:30.126Z,1.60
2019-05-11T17:24:59.016Z,1.40
2019-05-11T17:27:24.347Z,1.37
2019-05-11T17:29:51.640Z,1.30
2019-05-11T17:32:18.705Z,1.20
2019-05-11T17:34:47.795Z,1.40
2019-05-11T17:37:13.065Z,1.13
2019-05-11T17:39:40.208Z,1.30
2019-05-11T17:42:08.987Z,1.53
2019-05-11T17:44:34.608Z,1.20
2019-05-11T17:47:01.665Z,1.37
2019-05-11T17:49:28.796Z,1.60
2019-05-11T17:51:55.935Z,1.70
2019-05-11T17:54:23.016Z,1.30
2019-05-11T17:56:50.206Z,1.50
2019-05-11T17:59:19.498Z,1.17
2019-05-11T18:01:44.483Z,1.30
2019-05-11T18:04:11.578Z,1.40
2019-05-11T18:06:39.045Z,1.33
2019-05-11T18:09:08.487Z,1.00
2019-05-11T18:11:33.887Z,1.60
2019-05-11T18:14:00.977Z,1.13
2019-05-11T18:16:28.072Z,1.40
2019-05-11T18:18:55.167Z,1.30
2019-05-11T18:21:22.287Z,1.30
2019-05-11T18:23:49.531Z,1.47
2019-05-11T18:26:18.115Z,1.10
2019-05-11T18:28:43.776Z,1.13
2019-05-11T18:31:10.892Z,1.43
2019-05-11T18:33:38.210Z,1.50
2019-05-11T18:36:05.131Z,1.00
2019-05-11T18:38:32.256Z,1.30
2019-05-11T18:40:59.315Z,1.60
2019-05-11T18:43:28.020Z,1.30
2019-05-11T18:45:53.550Z,1.20
2019-05-11T18:48:20.660Z,1.67
2019-05-11T18:50:49.133Z,1.30
2019-05-11T18:53:14.977Z,1.20
2019-05-11T18:55:42.120Z,1.30
2019-05-11T18:58:09.221Z,1.60
2019-05-11T19:00:38.207Z,1.50
2019-05-11T19:03:03.444Z,1.30
2019-05-11T19:05:30.658Z,1.60
2019-05-11T19:07:58.405Z,1.37
2019-05-11T19:10:25.006Z,1.23
2019-05-11T19:12:52.125Z,1.30
2019-05-11T19:15:19.457Z,1.43
2019-05-11T19:17:48.758Z,1.40
2019-05-11T19:20:13.549Z,1.10
2019-05-11T19:22:40.836Z,1.40
2019-05-11T19:25:09.014Z,1.20
2019-05-11T19:27:35.056Z,1.20
2019-05-11T19:30:02.264Z,1.00
2019-05-11T19:32:29.443Z,1.13
2019-05-11T19:34:58.106Z,1.50
2019-05-11T19:37:23.595Z,1.50
2019-05-11T19:39:50.909Z,1.10
2019-05-11T19:42:17.938Z,1.33
2019-05-11T19:44:45.039Z,1.10
2019-05-11T19:47:12.084Z,1.07
2019-05-11T19:49:39.187Z,1.43
2019-05-11T19:52:08.417Z,1.43
2019-05-11T19:54:33.504Z,1.50
2019-05-11T19:57:00.585Z,1.30
2019-05-11T19:59:28.015Z,1.57
2019-05-11T20:01:57.910Z,1.33
2019-05-11T20:04:22.066Z,1.43
2019-05-11T20:09:22.791Z,1.33
2019-05-11T20:11:49.920Z,1.50
2019-05-11T20:14:17.104Z,1.30
2019-05-11T20:16:44.212Z,1.20
2019-05-11T20:19:14.024Z,1.10
2019-05-11T20:21:38.540Z,1.20
2019-05-11T20:24:08.329Z,1.20
2019-05-11T20:26:32.836Z,1.33
2019-05-11T20:28:59.960Z,1.10
2019-05-11T20:31:27.720Z,1.10
2019-05-11T20:33:54.246Z,1.47
2019-05-11T20:36:21.362Z,1.03
2019-05-11T20:38:48.744Z,1.40
2019-05-11T20:41:15.904Z,1.30
2019-05-11T20:43:43.072Z,1.00
2019-05-11T20:46:10.416Z,1.20
2019-05-11T20:48:38.234Z,1.10
2019-05-11T20:51:04.640Z,1.47
2019-05-11T20:53:31.810Z,1.30
2019-05-11T20:55:58.940Z,1.30
2019-05-11T20:58:28.741Z,1.27
2019-05-11T21:00:53.277Z,1.37
2019-05-11T21:03:20.371Z,1.27
2019-05-11T21:05:48.208Z,1.00
2019-05-11T21:08:14.857Z,0.90
2019-05-11T21:10:41.960Z,0.90
2019-05-11T21:13:09.084Z,1.03
2019-05-11T21:15:38.326Z,1.10
2019-05-11T21:18:03.294Z,1.17
2019-05-11T21:20:30.407Z,1.10
2019-05-11T21:22:57.929Z,1.00
2019-05-11T21:25:24.764Z,0.97
2019-05-11T21:27:51.854Z,1.23
2019-05-11T21:30:18.899Z,1.23
2019-05-11T21:32:47.839Z,1.10
2019-05-11T21:35:13.180Z,1.00
2019-05-11T21:37:40.324Z,1.23
2019-05-11T21:40:08.526Z,1.00
2019-05-11T21:42:34.519Z,1.20
2019-05-11T21:45:01.706Z,1.03
2019-05-11T21:47:29.038Z,1.00
2019-05-11T21:49:57.806Z,1.10
2019-05-11T21:52:23.076Z,1.07
2019-05-11T21:54:50.238Z,1.20
2019-05-11T21:57:18.559Z,0.80
2019-05-11T21:59:44.444Z,1.20
2019-05-11T22:02:11.511Z,0.80
2019-05-11T22:04:38.916Z,1.00
2019-05-11T22:07:07.937Z,1.00
2019-05-11T22:09:32.909Z,0.97
2019-05-11T22:12:00.017Z,0.97
2019-05-11T22:14:29.696Z,1.00
2019-05-11T22:16:54.264Z,1.10
2019-05-11T22:19:21.402Z,0.80
2019-05-11T22:21:49.650Z,0.87
2019-05-11T22:24:17.792Z,0.77
2019-05-11T22:26:42.851Z,0.70
2019-05-11T22:29:09.983Z,0.53
2019-05-11T22:31:38.279Z,1.30
2019-05-11T22:34:04.207Z,0.80
2019-05-11T22:36:31.260Z,1.10
2019-05-11T22:38:58.938Z,1.07
2019-05-11T22:41:25.605Z,0.90
2019-05-11T22:43:52.727Z,0.90
2019-05-11T22:46:19.887Z,0.50
2019-05-11T22:48:48.956Z,0.83
2019-05-11T22:51:14.079Z,0.90
2019-05-11T22:53:47.080Z,0.80
2019-05-11T22:56:08.195Z,0.90
2019-05-11T22:58:35.321Z,0.73
2019-05-11T23:01:02.499Z,0.90
2019-05-11T23:03:29.620Z,0.80
2019-05-11T23:05:58.154Z,0.70
2019-05-11T23:08:23.950Z,0.70
2019-05-11T23:10:51.052Z,0.93
2019-05-11T23:13:18.695Z,0.73
2019-05-11T23:15:47.647Z,0.90
2019-05-11T23:18:12.336Z,0.70
2019-05-11T23:20:39.391Z,0.70
2019-05-11T23:23:08.617Z,0.70
2019-05-11T23:25:33.641Z,0.80
2019-05-11T23:28:00.748Z,0.80
2019-05-11T23:30:28.150Z,0.80
2019-05-11T23:32:54.927Z,0.63
2019-05-11T23:35:22.051Z,0.87
2019-05-11T23:37:49.952Z,0.77
2019-05-11T23:40:18.258Z,0.60
2019-05-11T23:42:43.481Z,0.77
2019-05-11T23:45:10.552Z,0.90
2019-05-11T23:47:39.353Z,1.00
2019-05-11T23:50:04.888Z,0.70
2019-05-11T23:52:32.014Z,0.83
2019-05-11T23:54:59.123Z,0.60
2019-05-11T23:57:26.167Z,0.60
2019-05-11T23:59:53.265Z,1.00
